KOLE

Cattaraugus County-Olean Airport

Olean, New York, USA
METAR KOLE 200055Z AUTO 24009G14KT 10SM CLR M01/M08 A2983 RMK AO2
Observed Flight Rules
Jan-20 @ 00:55 UTC (28 minutes ago) Visual Flight Rules
Wind Visibility Clouds
240° at 9 knots
 Gusting to 14 knots
10 miles
  • Clear skies
Temperatures Readings
Current -1°C / 30°F
Dewpoint -8°C / 18°F
Humidity 59%
Altimeter 29.83" Hg
Pressure 1010 hPa
Elevation 651
METAR KOLE 200055Z AUTO 24009G14KT 10SM CLR M01/M08 A2983 RMK AO2
Observed Flight Rules
Jan-20 @ 00:55 UTC
(28 minutes ago)
VFR
Wind Visibility
240° at 9 knots
 Gusting to 14 knots
10 miles
Clouds
  • Clear skies
Temperature Dewpoint
-1°C / 30°F -8°C / 18°F
Humidity Altimeter Pressure
59% 29.83" Hg 1010 hPa